Time;durP1;ratioP1;P1;durP2;ratioP2;P2;SDS_P1;SDS_P2;PMS_P1;PMS_P2;Temp;Humidity;BMP_temperature;BMP_pressure;BME280_temperature;BME280_humidity;BME280_pressure;Samples;Min_cycle;Max_cycle;Signal;HPM_P1;HPM_P2
2023/09/28 00:01:22;;;;;;;;;;;;;;;15.84;72.25;98171.63;5016750;28;19971;-65
2023/09/28 00:04:09;;;;;;;;;;;;;;;15.88;72.20;98172.56;5017266;28;20375;-64
2023/09/28 00:06:57;;;;;;;;;;;;;;;15.84;71.94;98175.16;5020283;28;20653;-64
2023/09/28 00:09:47;;;;;;;;;;;;;;;15.81;72.17;98177.78;5025152;28;19929;-64
2023/09/28 00:12:34;;;;;;;;;;;;;;;15.80;72.11;98184.41;5025680;28;19929;-64
2023/09/28 00:15:24;;;;;;;;;;;;;;;15.81;72.26;98183.25;5022887;28;19929;-64
2023/09/28 00:18:11;;;;;;;;;;;;;;;15.76;72.19;98186.19;5027777;28;19925;-64
2023/09/28 00:20:59;;;;;;;;;;;;;;;15.75;72.41;98179.94;5031264;28;19990;-64
2023/09/28 00:23:49;;;;;;;;;;;;;;;15.64;72.47;98187.78;5027509;28;20014;-64
2023/09/28 00:26:38;;;;;;;;;;;;;;;15.46;72.98;98178.09;5024767;28;19932;-64
2023/09/28 00:29:26;;;;;;;;;;;;;;;15.39;73.17;98172.34;5029266;28;19925;-64
2023/09/28 00:32:14;;;;;;;;;;;;;;;15.39;73.39;98183.31;5023234;28;20496;-64
2023/09/28 00:35:01;;;;;;;;;;;;;;;15.42;73.01;98185.38;5030000;28;19933;-64
2023/09/28 00:37:49;;;;;;;;;;;;;;;15.48;72.73;98180.50;5030715;28;19933;-64
2023/09/28 00:40:39;;;;;;;;;;;;;;;15.44;72.68;98183.09;5029917;28;19932;-64
2023/09/28 00:43:29;;;;;;;;;;;;;;;15.45;72.54;98179.25;5029370;28;19925;-64
2023/09/28 00:46:17;;;;;;;;;;;;;;;15.42;72.53;98177.16;5016195;28;20429;-64
2023/09/28 00:49:05;;;;;;;;;;;;;;;15.36;72.75;98171.09;5007112;28;20353;-64
2023/09/28 00:51:54;;;;;;;;;;;;;;;15.29;72.93;98173.59;5023266;28;19929;-64
2023/09/28 00:54:43;;;;;;;;;;;;;;;15.24;72.92;98164.78;5008713;28;19933;-64
2023/09/28 00:57:33;;;;;;;;;;;;;;;15.28;73.07;98168.44;5005109;28;19933;-63
2023/09/28 01:00:26;;;;;;;;;;;;;;;15.29;72.76;98167.31;5021471;28;20301;-64
2023/09/28 01:03:13;;;;;;;;;;;;;;;15.30;72.60;98166.19;5005276;28;19965;-64
2023/09/28 01:06:05;;;;;;;;;;;;;;;15.26;72.63;98170.72;5004611;28;19925;-64
2023/09/28 01:08:52;;;;;;;;;;;;;;;15.09;72.74;98163.47;5015912;28;20390;-64
2023/09/28 01:11:41;;;;;;;;;;;;;;;15.06;72.89;98167.66;5008300;28;19929;-64
2023/09/28 01:14:29;;;;;;;;;;;;;;;15.08;72.76;98179.06;5007338;28;19932;-64
2023/09/28 01:17:19;;;;;;;;;;;;;;;15.01;72.67;98178.78;5006738;28;19930;-64
2023/09/28 01:20:17;;;;;;;;;;;;;;;14.99;72.85;98178.34;5010813;28;19936;-64
2023/09/28 01:23:09;;;;;;;;;;;;;;;14.99;73.01;98183.00;5005832;28;20649;-64
2023/09/28 01:25:56;;;;;;;;;;;;;;;15.00;72.53;98177.19;5011222;28;20471;-64
2023/09/28 01:28:45;;;;;;;;;;;;;;;15.02;72.45;98177.69;5009686;28;19929;-64
2023/09/28 01:31:32;;;;;;;;;;;;;;;15.02;72.37;98172.22;5011219;28;19925;-64
2023/09/28 01:34:20;;;;;;;;;;;;;;;15.01;72.31;98167.84;5008036;28;20363;-64
2023/09/28 01:37:10;;;;;;;;;;;;;;;15.00;72.50;98171.72;5028212;28;19932;-64
2023/09/28 01:39:58;;;;;;;;;;;;;;;15.00;72.26;98166.25;5022302;28;20573;-64
2023/09/28 01:42:47;;;;;;;;;;;;;;;14.99;72.37;98159.19;5020342;28;19929;-65
2023/09/28 01:45:36;;;;;;;;;;;;;;;14.98;72.56;98163.06;5024090;28;19931;-64
2023/09/28 01:48:24;;;;;;;;;;;;;;;14.97;72.52;98156.00;5025438;28;19929;-64
2023/09/28 01:51:11;;;;;;;;;;;;;;;14.98;72.42;98156.78;5020467;28;19971;-64
2023/09/28 01:54:00;;;;;;;;;;;;;;;14.97;72.21;98161.47;5029393;28;19932;-64
2023/09/28 01:56:49;;;;;;;;;;;;;;;15.02;72.26;98169.47;5027967;28;20387;-64
2023/09/28 01:59:37;;;;;;;;;;;;;;;14.97;72.21;98166.09;5024533;28;19925;-64
2023/09/28 02:02:25;;;;;;;;;;;;;;;14.98;72.01;98168.53;5004702;28;20410;-64
2023/09/28 02:05:16;;;;;;;;;;;;;;;14.95;71.97;98174.66;5008532;28;19929;-64
2023/09/28 02:08:05;;;;;;;;;;;;;;;14.85;72.34;98164.09;5005424;28;19980;-65
2023/09/28 02:10:53;;;;;;;;;;;;;;;14.72;72.63;98156.97;5008923;28;19936;-64
2023/09/28 02:13:44;;;;;;;;;;;;;;;14.73;72.59;98153.91;5000890;28;19929;-64
2023/09/28 02:16:31;;;;;;;;;;;;;;;14.75;72.47;98159.03;5001141;28;19999;-64
2023/09/28 02:19:19;;;;;;;;;;;;;;;14.77;72.39;98162.25;5008146;28;20060;-64
2023/09/28 02:22:09;;;;;;;;;;;;;;;14.78;72.40;98169.31;5007895;28;19976;-64
2023/09/28 02:24:59;;;;;;;;;;;;;;;14.83;72.33;98178.13;5005039;28;19925;-64
2023/09/28 02:27:47;;;;;;;;;;;;;;;14.85;71.97;98180.53;5004740;28;19926;-64
2023/09/28 02:30:36;;;;;;;;;;;;;;;14.85;71.97;98183.25;5000145;28;19925;-64
2023/09/28 02:33:26;;;;;;;;;;;;;;;14.78;72.35;98174.78;5026093;28;20326;-64
2023/09/28 02:36:15;;;;;;;;;;;;;;;14.78;72.18;98170.13;5014542;28;20291;-64
2023/09/28 02:39:05;;;;;;;;;;;;;;;14.79;72.16;98176.38;5024065;28;19945;-64
2023/09/28 02:41:53;;;;;;;;;;;;;;;14.76;72.16;98171.59;5027131;28;19931;-64
2023/09/28 02:44:40;;;;;;;;;;;;;;;14.75;72.37;98176.25;5026147;28;19925;-64
2023/09/28 02:47:29;;;;;;;;;;;;;;;14.64;72.85;98166.81;5008512;28;19932;-64
2023/09/28 02:50:18;;;;;;;;;;;;;;;14.63;72.70;98168.75;5013998;28;19948;-64
2023/09/28 02:53:07;;;;;;;;;;;;;;;14.65;72.73;98166.50;5010429;28;19926;-64
2023/09/28 02:55:55;;;;;;;;;;;;;;;14.66;72.58;98162.63;5029719;28;19932;-64
2023/09/28 02:58:42;;;;;;;;;;;;;;;14.66;72.45;98168.09;5010317;28;19929;-64
2023/09/28 03:01:31;;;;;;;;;;;;;;;14.66;72.68;98167.31;5009755;28;19963;-64
2023/09/28 03:04:20;;;;;;;;;;;;;;;14.57;72.47;98170.09;5006813;28;20060;-64
2023/09/28 03:07:08;;;;;;;;;;;;;;;14.57;72.43;98170.09;5002120;28;19929;-65
2023/09/28 03:09:55;;;;;;;;;;;;;;;14.57;72.40;98175.56;5004582;28;19933;-64
2023/09/28 03:12:44;;;;;;;;;;;;;;;14.52;72.16;98167.53;5012192;28;19926;-64
2023/09/28 03:15:32;;;;;;;;;;;;;;;14.52;72.12;98173.00;5012636;28;20403;-64
2023/09/28 03:18:21;;;;;;;;;;;;;;;14.53;71.94;98176.53;5006092;28;19956;-64
2023/09/28 03:21:11;;;;;;;;;;;;;;;14.54;71.66;98169.94;5013078;28;19932;-64
2023/09/28 03:23:58;;;;;;;;;;;;;;;14.52;71.59;98174.94;5024377;28;19933;-65
2023/09/28 03:26:47;;;;;;;;;;;;;;;14.50;71.87;98171.75;5017469;28;19925;-65
2023/09/28 03:29:47;;;;;;;;;;;;;;;14.48;71.97;98177.53;5012603;28;19932;-64
2023/09/28 03:32:35;;;;;;;;;;;;;;;14.45;72.04;98182.84;5028455;28;19982;-64
2023/09/28 03:35:24;;;;;;;;;;;;;;;14.42;72.06;98185.09;5026018;28;20458;-64
2023/09/28 03:38:13;;;;;;;;;;;;;;;14.42;72.35;98187.81;5027987;28;20010;-64
2023/09/28 03:41:01;;;;;;;;;;;;;;;14.42;71.97;98189.75;5026954;28;20050;-64
2023/09/28 03:43:49;;;;;;;;;;;;;;;14.32;72.67;98195.59;5023357;28;20016;-64
2023/09/28 03:46:38;;;;;;;;;;;;;;;14.35;72.63;98184.03;5023931;28;19925;-64
2023/09/28 03:49:26;;;;;;;;;;;;;;;14.34;72.25;98177.75;5024759;28;19932;-64
2023/09/28 03:52:14;;;;;;;;;;;;;;;14.36;71.93;98174.69;5025016;28;20372;-64
2023/09/28 03:55:04;;;;;;;;;;;;;;;14.34;72.01;98171.50;5029835;28;19940;-64
2023/09/28 03:57:52;;;;;;;;;;;;;;;14.32;71.76;98176.47;5031611;28;19925;-64
2023/09/28 04:00:40;;;;;;;;;;;;;;;14.35;71.88;98175.81;5019170;28;20494;-64
2023/09/28 04:03:28;;;;;;;;;;;;;;;14.32;72.14;98179.19;5026531;28;19978;-64
2023/09/28 04:06:16;;;;;;;;;;;;;;;14.36;71.93;98185.63;5030773;28;19933;-64
2023/09/28 04:09:07;;;;;;;;;;;;;;;14.40;71.93;98192.03;5030551;28;20415;-64
2023/09/28 04:11:56;;;;;;;;;;;;;;;14.28;72.07;98189.22;5027771;28;20428;-64
2023/09/28 04:14:44;;;;;;;;;;;;;;;14.17;72.62;98188.78;5027988;28;19940;-65
2023/09/28 04:17:34;;;;;;;;;;;;;;;14.15;72.65;98200.00;5017655;28;19933;-64
2023/09/28 04:20:22;;;;;;;;;;;;;;;14.15;72.74;98197.28;5020877;28;19940;-64
2023/09/28 04:23:12;;;;;;;;;;;;;;;14.18;72.76;98195.03;5027161;28;19980;-64
2023/09/28 04:26:00;;;;;;;;;;;;;;;14.13;72.60;98198.75;5031825;28;20002;-64
2023/09/28 04:28:50;;;;;;;;;;;;;;;14.14;72.72;98201.13;5026480;28;20391;-64
2023/09/28 04:31:40;;;;;;;;;;;;;;;14.03;72.96;98199.91;5022175;28;19933;-64
2023/09/28 04:34:29;;;;;;;;;;;;;;;14.04;73.20;98196.03;5030678;28;19925;-64
2023/09/28 04:37:17;;;;;;;;;;;;;;;14.08;73.20;98191.53;5023528;28;19964;-64
2023/09/28 04:40:06;;;;;;;;;;;;;;;14.06;73.20;98199.25;5021480;28;19952;-64
2023/09/28 04:42:54;;;;;;;;;;;;;;;14.05;73.15;98196.84;5026342;28;20426;-64
2023/09/28 04:45:44;;;;;;;;;;;;;;;13.99;73.15;98204.41;5024166;28;20008;-64
2023/09/28 04:48:32;;;;;;;;;;;;;;;13.84;73.91;98199.47;5028941;28;19925;-63
2023/09/28 04:51:20;;;;;;;;;;;;;;;13.85;73.96;98209.28;5028720;28;19925;-64
2023/09/28 04:54:08;;;;;;;;;;;;;;;13.89;73.84;98202.03;5020156;28;19935;-64
2023/09/28 04:56:58;;;;;;;;;;;;;;;13.84;74.13;98200.25;5029777;28;19929;-64
2023/09/28 04:59:45;;;;;;;;;;;;;;;13.87;73.61;98199.63;5018855;28;20059;-64
2023/09/28 05:02:35;;;;;;;;;;;;;;;13.94;73.55;98201.03;5025959;28;19936;-64
2023/09/28 05:05:25;;;;;;;;;;;;;;;13.97;73.28;98209.41;5028253;28;20390;-63
2023/09/28 05:08:13;;;;;;;;;;;;;;;14.01;73.10;98207.63;5029473;28;20012;-65
2023/09/28 05:11:01;;;;;;;;;;;;;;;14.02;73.06;98211.97;5028821;28;20024;-64
2023/09/28 05:13:51;;;;;;;;;;;;;;;14.03;72.99;98219.03;5023234;28;19925;-64
2023/09/28 05:16:39;;;;;;;;;;;;;;;14.03;73.03;98227.22;5009725;28;19956;-66
2023/09/28 05:19:30;;;;;;;;;;;;;;;14.08;72.91;98224.31;5010624;28;20414;-64
2023/09/28 05:22:18;;;;;;;;;;;;;;;14.04;73.11;98220.63;5011299;28;19934;-64
2023/09/28 05:25:06;;;;;;;;;;;;;;;14.09;73.30;98230.56;5003101;28;19936;-64
2023/09/28 05:27:54;;;;;;;;;;;;;;;14.00;73.61;98227.84;5005005;28;19925;-63
2023/09/28 05:30:42;;;;;;;;;;;;;;;14.00;73.86;98235.25;4999138;28;19941;-63
2023/09/28 05:33:30;;;;;;;;;;;;;;;14.03;73.89;98231.88;5007710;28;19925;-64
2023/09/28 05:36:20;;;;;;;;;;;;;;;14.05;73.82;98232.34;5009241;28;20044;-63
2023/09/28 05:39:11;;;;;;;;;;;;;;;14.05;73.66;98240.53;5007207;28;19983;-64
2023/09/28 05:42:01;;;;;;;;;;;;;;;14.10;73.66;98243.91;5011163;28;19932;-64
2023/09/28 05:44:49;;;;;;;;;;;;;;;14.18;73.52;98249.69;5002980;28;19932;-64
2023/09/28 05:47:37;;;;;;;;;;;;;;;14.18;73.13;98252.41;5007276;28;19937;-64
2023/09/28 05:50:25;;;;;;;;;;;;;;;14.20;73.32;98255.59;5009589;28;19926;-65
2023/09/28 05:53:15;;;;;;;;;;;;;;;14.19;73.42;98260.28;5006559;28;20008;-63
2023/09/28 05:56:03;;;;;;;;;;;;;;;14.22;73.38;98256.91;4998947;28;19937;-64
2023/09/28 05:58:51;;;;;;;;;;;;;;;14.24;73.29;98264.75;5003056;28;20501;-64
2023/09/28 06:01:40;;;;;;;;;;;;;;;14.15;73.57;98254.66;4995713;28;19925;-64
2023/09/28 06:04:28;;;;;;;;;;;;;;;14.14;74.03;98257.72;5007372;28;20047;-63
2023/09/28 06:07:16;;;;;;;;;;;;;;;14.19;74.15;98264.94;5001930;28;19948;-63
2023/09/28 06:10:08;;;;;;;;;;;;;;;14.25;73.96;98260.91;5000592;28;20016;-64
2023/09/28 06:12:56;;;;;;;;;;;;;;;14.25;74.39;98266.38;5011443;28;19932;-63
2023/09/28 06:15:44;;;;;;;;;;;;;;;14.24;74.56;98267.50;5027579;28;20307;-64
2023/09/28 06:18:32;;;;;;;;;;;;;;;14.20;74.63;98263.81;5023615;28;19933;-63
2023/09/28 06:21:20;;;;;;;;;;;;;;;14.25;74.62;98267.16;5029631;28;19964;-64
2023/09/28 06:24:08;;;;;;;;;;;;;;;14.34;74.29;98275.34;5022579;28;19928;-64
2023/09/28 06:26:58;;;;;;;;;;;;;;;14.35;74.07;98276.94;5020755;28;20395;-64
2023/09/28 06:29:52;;;;;;;;;;;;;;;14.38;74.03;98277.09;5026697;28;19933;-64
2023/09/28 06:32:43;;;;;;;;;;;;;;;14.41;73.95;98286.56;5025574;28;19940;-64
2023/09/28 06:35:31;;;;;;;;;;;;;;;14.40;74.09;98293.97;5026104;28;20385;-64
2023/09/28 06:38:19;;;;;;;;;;;;;;;14.44;74.37;98293.31;5025323;28;19929;-64
2023/09/28 06:41:07;;;;;;;;;;;;;;;14.43;74.48;98289.75;5026606;28;19932;-64
2023/09/28 06:43:57;;;;;;;;;;;;;;;14.44;74.63;98296.06;5028701;28;19974;-64
2023/09/28 06:46:46;;;;;;;;;;;;;;;14.51;75.00;98291.72;5018757;28;19932;-64
2023/09/28 06:49:34;;;;;;;;;;;;;;;14.57;74.94;98301.31;5019848;28;20407;-64
2023/09/28 06:52:22;;;;;;;;;;;;;;;14.64;75.02;98296.13;5021909;28;20490;-64
2023/09/28 06:55:10;;;;;;;;;;;;;;;14.73;75.16;98298.06;5015448;28;20559;-65
2023/09/28 06:57:58;;;;;;;;;;;;;;;14.78;75.17;98306.88;5023051;28;20483;-64
2023/09/28 07:00:49;;;;;;;;;;;;;;;14.88;74.82;98311.19;5017698;28;19940;-64
2023/09/28 07:03:37;;;;;;;;;;;;;;;14.93;74.92;98305.53;5025566;28;19929;-64
2023/09/28 07:06:25;;;;;;;;;;;;;;;15.01;75.02;98310.13;5032804;28;19925;-64
2023/09/28 07:09:13;;;;;;;;;;;;;;;15.06;74.97;98304.47;5024426;28;19925;-64
2023/09/28 07:12:01;;;;;;;;;;;;;;;15.12;75.03;98305.06;5021775;28;20446;-64
2023/09/28 07:14:50;;;;;;;;;;;;;;;15.13;75.22;98307.50;4985428;28;20366;-64
2023/09/28 07:17:39;;;;;;;;;;;;;;;15.18;75.37;98321.00;4984489;28;20016;-64
2023/09/28 07:20:27;;;;;;;;;;;;;;;15.26;75.37;98321.25;4987239;28;20028;-64
2023/09/28 07:23:16;;;;;;;;;;;;;;;15.30;75.54;98316.72;4986003;28;20308;-64
2023/09/28 07:26:12;;;;;;;;;;;;;;;15.31;75.53;98308.19;4983587;28;19933;-64
2023/09/28 07:29:04;;;;;;;;;;;;;;;15.34;75.90;98306.69;4992724;28;20402;-63
2023/09/28 07:31:52;;;;;;;;;;;;;;;15.37;75.93;98297.84;4978020;28;19926;-63
2023/09/28 07:34:42;;;;;;;;;;;;;;;15.42;76.06;98314.06;4991556;28;19945;-64
2023/09/28 07:37:30;;;;;;;;;;;;;;;15.45;76.30;98329.84;4993075;28;19940;-63
2023/09/28 07:40:24;;;;;;;;;;;;;;;15.53;76.24;98336.38;4994531;28;19926;-62
2023/09/28 07:43:24;;;;;;;;;;;;;;;15.55;76.00;98353.25;4989304;28;19926;-62
2023/09/28 07:46:13;;;;;;;;;;;;;;;15.60;76.29;98342.91;4995491;28;20344;-62
2023/09/28 07:49:01;;;;;;;;;;;;;;;15.67;76.37;98332.28;5012491;28;19933;-62
2023/09/28 07:51:50;;;;;;;;;;;;;;;15.75;76.14;98338.00;5012736;28;19926;-63
2023/09/28 07:54:38;;;;;;;;;;;;;;;15.80;75.95;98346.03;5003869;28;20060;-62
2023/09/28 07:57:26;;;;;;;;;;;;;;;15.88;75.94;98334.22;5010227;28;19925;-63
2023/09/28 08:00:21;;;;;;;;;;;;;;;16.00;75.88;98337.00;5004628;28;19930;-63
2023/09/28 08:03:09;;;;;;;;;;;;;;;16.07;75.67;98333.69;4994310;28;19936;-62
2023/09/28 08:05:59;;;;;;;;;;;;;;;16.14;75.62;98334.78;4993911;28;19979;-62
2023/09/28 08:08:49;;;;;;;;;;;;;;;16.20;75.59;98327.94;4991183;28;19934;-62
2023/09/28 08:11:38;;;;;;;;;;;;;;;16.28;75.42;98328.16;4991534;28;19926;-62
2023/09/28 08:14:27;;;;;;;;;;;;;;;16.33;75.43;98327.97;5009731;28;19926;-62
2023/09/28 08:17:15;;;;;;;;;;;;;;;16.36;75.68;98328.09;5027036;28;19936;-62
2023/09/28 08:20:03;;;;;;;;;;;;;;;16.42;75.54;98326.72;5031355;28;19971;-62
2023/09/28 08:22:51;;;;;;;;;;;;;;;16.52;75.50;98328.25;5030138;28;19929;-62
2023/09/28 08:25:41;;;;;;;;;;;;;;;16.60;75.35;98329.28;5031205;28;19935;-62
2023/09/28 08:28:29;;;;;;;;;;;;;;;16.65;75.55;98327.09;5032719;28;19979;-62
2023/09/28 08:31:17;;;;;;;;;;;;;;;16.72;75.22;98326.56;5013173;28;19926;-62
2023/09/28 08:34:05;;;;;;;;;;;;;;;16.77;75.28;98320.84;5011310;28;19929;-63
2023/09/28 08:36:54;;;;;;;;;;;;;;;16.85;75.28;98324.66;5010520;28;20405;-63
2023/09/28 08:39:42;;;;;;;;;;;;;;;16.90;75.19;98317.00;5007793;28;19932;-63
2023/09/28 08:42:31;;;;;;;;;;;;;;;16.96;75.10;98306.59;5002306;28;19933;-63
2023/09/28 08:45:20;;;;;;;;;;;;;;;17.06;75.10;98300.63;5002425;28;20399;-63
2023/09/28 08:48:11;;;;;;;;;;;;;;;17.14;75.06;98304.38;5028010;28;20016;-63
2023/09/28 08:51:01;;;;;;;;;;;;;;;17.16;74.74;98296.63;5025906;28;19925;-63
2023/09/28 08:53:50;;;;;;;;;;;;;;;17.25;74.32;98298.06;5023076;28;20588;-63
2023/09/28 08:56:38;;;;;;;;;;;;;;;17.29;73.86;98285.25;5026698;28;19940;-63
2023/09/28 08:59:30;;;;;;;;;;;;;;;17.37;73.72;98294.53;5019146;28;20000;-64
2023/09/28 09:02:18;;;;;;;;;;;;;;;17.42;73.40;98290.75;4999075;28;19926;-63
2023/09/28 09:05:06;;;;;;;;;;;;;;;17.50;73.34;98304.31;5006802;28;19926;-63
2023/09/28 09:07:55;;;;;;;;;;;;;;;17.57;73.18;98309.22;5006104;28;19925;-63
2023/09/28 09:10:43;;;;;;;;;;;;;;;17.66;73.33;98320.88;5008605;28;20325;-63
2023/09/28 09:13:33;;;;;;;;;;;;;;;17.67;72.61;98319.72;5020477;28;19925;-63
2023/09/28 09:16:23;;;;;;;;;;;;;;;17.73;72.48;98315.63;5024929;28;19932;-63
2023/09/28 09:19:13;;;;;;;;;;;;;;;17.80;72.03;98312.31;5019726;28;19925;-63
2023/09/28 09:22:01;;;;;;;;;;;;;;;17.84;71.35;98315.13;5024656;28;19929;-63
2023/09/28 09:24:53;;;;;;;;;;;;;;;17.88;70.39;98311.34;5024575;28;20378;-63
2023/09/28 09:27:41;;;;;;;;;;;;;;;17.94;70.43;98312.69;5026694;28;19926;-63
2023/09/28 09:30:29;;;;;;;;;;;;;;;18.01;70.32;98306.59;5023196;28;19925;-64
2023/09/28 09:33:19;;;;;;;;;;;;;;;18.06;70.03;98298.91;5004937;28;19933;-63
2023/09/28 09:36:07;;;;;;;;;;;;;;;18.12;69.60;98298.66;5006056;28;19932;-63
2023/09/28 09:38:56;;;;;;;;;;;;;;;18.18;69.18;98303.53;5007817;28;20020;-63
2023/09/28 09:41:44;;;;;;;;;;;;;;;18.27;69.28;98304.19;5006509;28;19987;-63
2023/09/28 09:44:32;;;;;;;;;;;;;;;18.35;68.58;98304.34;5008208;28;20020;-63
2023/09/28 09:47:20;;;;;;;;;;;;;;;18.40;68.25;98298.59;5018798;28;19932;-63
2023/09/28 09:50:10;;;;;;;;;;;;;;;18.46;67.96;98299.94;5029114;28;20405;-64
2023/09/28 09:52:58;;;;;;;;;;;;;;;18.50;68.02;98303.59;5025601;28;20383;-63
2023/09/28 09:55:48;;;;;;;;;;;;;;;18.52;67.92;98299.31;5026632;28;19933;-63
2023/09/28 09:58:47;;;;;;;;;;;;;;;18.59;67.84;98299.50;5020504;28;19984;-63
2023/09/28 10:01:38;;;;;;;;;;;;;;;18.62;67.62;98295.25;5007284;28;19932;-64
2023/09/28 10:04:26;;;;;;;;;;;;;;;18.75;68.03;98287.72;5028017;28;19929;-63
2023/09/28 10:07:16;;;;;;;;;;;;;;;18.84;66.94;98297.38;5027256;28;19951;-63
2023/09/28 10:10:05;;;;;;;;;;;;;;;18.86;66.23;98297.06;5029070;28;20315;-63
2023/09/28 10:12:53;;;;;;;;;;;;;;;18.92;66.17;98300.34;5026987;28;20430;-62
2023/09/28 10:15:41;;;;;;;;;;;;;;;18.92;65.88;98300.34;5020056;28;19932;-63
2023/09/28 10:18:29;;;;;;;;;;;;;;;18.96;65.46;98303.94;5029819;28;19976;-63
2023/09/28 10:21:18;;;;;;;;;;;;;;;19.07;66.87;98316.03;5027268;28;20008;-63
2023/09/28 10:24:10;;;;;;;;;;;;;;;19.18;65.94;98316.28;5026071;28;19944;-64
2023/09/28 10:26:59;;;;;;;;;;;;;;;19.26;64.76;98307.81;5025965;28;19964;-63
2023/09/28 10:29:47;;;;;;;;;;;;;;;19.27;63.65;98314.91;5028622;28;19925;-64
2023/09/28 10:32:36;;;;;;;;;;;;;;;19.30;63.43;98316.97;5006421;28;20677;-64
2023/09/28 10:35:26;;;;;;;;;;;;;;;19.40;63.26;98309.31;5003954;28;19933;-63
2023/09/28 10:38:20;;;;;;;;;;;;;;;19.46;63.47;98302.34;5006678;28;19935;-63
2023/09/28 10:41:10;;;;;;;;;;;;;;;19.57;63.21;98303.38;5008837;28;19952;-63
2023/09/28 10:43:58;;;;;;;;;;;;;;;19.56;61.59;98304.53;5005287;28;19926;-63
2023/09/28 10:46:47;;;;;;;;;;;;;;;19.53;60.71;98308.00;5008407;28;19936;-64
2023/09/28 10:49:35;;;;;;;;;;;;;;;19.53;60.17;98297.78;5024725;28;20648;-64
2023/09/28 10:52:28;;;;;;;;;;;;;;;19.55;60.57;98295.47;5026596;28;19929;-64
2023/09/28 10:55:16;;;;;;;;;;;;;;;19.69;61.85;98297.75;5025261;28;19929;-64
2023/09/28 10:58:07;;;;;;;;;;;;;;;19.77;61.63;98291.25;5026090;28;19937;-64
2023/09/28 11:00:55;;;;;;;;;;;;;;;19.77;58.60;98290.44;5004345;28;19964;-64
2023/09/28 11:03:43;;;;;;;;;;;;;;;19.80;58.00;98297.97;5003317;28;19936;-64
2023/09/28 11:06:33;;;;;;;;;;;;;;;19.84;58.59;98305.16;5009263;28;19976;-63
2023/09/28 11:09:21;;;;;;;;;;;;;;;19.84;56.93;98302.41;5006051;28;19972;-63
2023/09/28 11:12:09;;;;;;;;;;;;;;;19.87;57.23;98304.44;5008715;28;20042;-63
2023/09/28 11:15:01;;;;;;;;;;;;;;;19.93;58.27;98301.41;5001230;28;19925;-63
2023/09/28 11:17:50;;;;;;;;;;;;;;;19.99;58.82;98302.69;5024976;28;19983;-63
2023/09/28 11:20:38;;;;;;;;;;;;;;;19.99;58.91;98294.44;5022258;28;20271;-63
2023/09/28 11:23:26;;;;;;;;;;;;;;;20.00;59.15;98298.78;5021437;28;19973;-63
2023/09/28 11:26:14;;;;;;;;;;;;;;;20.00;59.62;98298.78;5021042;28;19936;-63
2023/09/28 11:29:02;;;;;;;;;;;;;;;20.02;58.69;98297.22;5024581;28;19925;-63
2023/09/28 11:31:53;;;;;;;;;;;;;;;20.02;58.36;98301.94;4998424;28;20064;-63
2023/09/28 11:34:41;;;;;;;;;;;;;;;20.06;58.14;98289.84;5025854;28;19929;-63
2023/09/28 11:37:29;;;;;;;;;;;;;;;20.18;57.69;98290.84;5026936;28;20294;-63
2023/09/28 11:40:17;;;;;;;;;;;;;;;20.17;57.71;98295.56;5019857;28;20043;-63
2023/09/28 11:43:05;;;;;;;;;;;;;;;20.17;57.24;98284.53;5029786;28;20409;-63
2023/09/28 11:45:54;;;;;;;;;;;;;;;20.20;57.74;98294.84;5020427;28;19925;-63
2023/09/28 11:48:45;;;;;;;;;;;;;;;20.27;56.50;98283.94;5023831;28;19939;-63
2023/09/28 11:51:37;;;;;;;;;;;;;;;20.46;56.59;98282.31;5026928;28;19932;-63
2023/09/28 11:54:24;;;;;;;;;;;;;;;20.53;56.19;98276.91;5022554;28;19926;-63
2023/09/28 11:57:12;;;;;;;;;;;;;;;20.60;55.18;98274.28;5025245;28;19968;-63
2023/09/28 12:00:01;;;;;;;;;;;;;;;20.61;55.76;98270.34;5025943;28;19983;-63
2023/09/28 12:02:52;;;;;;;;;;;;;;;20.61;56.17;98267.59;5011158;28;20020;-63
2023/09/28 12:05:41;;;;;;;;;;;;;;;20.57;55.40;98261.22;5020060;28;19982;-63
2023/09/28 12:08:30;;;;;;;;;;;;;;;20.59;54.32;98267.16;5026320;28;20018;-63
2023/09/28 12:11:19;;;;;;;;;;;;;;;20.62;54.43;98260.91;5029333;28;19971;-64
2023/09/28 12:14:07;;;;;;;;;;;;;;;20.59;55.94;98256.91;5026097;28;20062;-65
2023/09/28 12:16:57;;;;;;;;;;;;;;;20.62;56.09;98249.88;5030052;28;19948;-64
2023/09/28 12:19:45;;;;;;;;;;;;;;;20.61;54.29;98243.56;5027087;28;19979;-65
2023/09/28 12:22:40;;;;;;;;;;;;;;;20.64;55.62;98244.78;5027009;28;20279;-64
2023/09/28 12:25:28;;;;;;;;;;;;;;;20.73;56.07;98248.09;5028134;28;20403;-64
2023/09/28 12:28:16;;;;;;;;;;;;;;;20.81;56.06;98248.97;5014718;28;19987;-64
2023/09/28 12:31:04;;;;;;;;;;;;;;;20.85;53.90;98250.63;5024528;28;20007;-64
2023/09/28 12:33:54;;;;;;;;;;;;;;;20.94;55.10;98255.91;5024571;28;19933;-64
2023/09/28 12:36:42;;;;;;;;;;;;;;;20.98;55.13;98255.94;5025213;28;19937;-64
2023/09/28 12:39:32;;;;;;;;;;;;;;;20.99;54.67;98257.56;5029123;28;20492;-64
2023/09/28 12:42:24;;;;;;;;;;;;;;;21.00;55.15;98257.19;5029976;28;20052;-65
2023/09/28 12:45:12;;;;;;;;;;;;;;;21.00;52.93;98248.09;5029349;28;19925;-64
2023/09/28 12:48:00;;;;;;;;;;;;;;;21.04;53.91;98254.44;5031382;28;19925;-64
2023/09/28 12:50:49;;;;;;;;;;;;;;;21.08;52.49;98249.78;5028008;28;19947;-64
2023/09/28 12:53:38;;;;;;;;;;;;;;;21.09;53.97;98268.75;5027836;28;20111;-64
2023/09/28 12:56:29;;;;;;;;;;;;;;;21.06;54.11;98260.41;5029312;28;20013;-65
2023/09/28 12:59:17;;;;;;;;;;;;;;;21.10;54.18;98248.25;5028434;28;19936;-65
2023/09/28 13:02:05;;;;;;;;;;;;;;;21.13;53.17;98241.97;5027868;28;19925;-64
2023/09/28 13:04:54;;;;;;;;;;;;;;;21.13;54.48;98238.41;5029431;28;19971;-64
2023/09/28 13:07:42;;;;;;;;;;;;;;;21.10;54.07;98242.72;5024871;28;19936;-64
2023/09/28 13:10:30;;;;;;;;;;;;;;;21.15;53.05;98244.38;5028491;28;20022;-63
2023/09/28 13:13:19;;;;;;;;;;;;;;;21.16;53.02;98245.97;5026076;28;19952;-64
2023/09/28 13:16:08;;;;;;;;;;;;;;;21.18;51.96;98249.13;5026519;28;20645;-64
2023/09/28 13:18:59;;;;;;;;;;;;;;;21.35;50.85;98240.31;5030661;28;20401;-64
2023/09/28 13:21:47;;;;;;;;;;;;;;;21.57;49.87;98243.34;5025970;28;19934;-64
2023/09/28 13:24:35;;;;;;;;;;;;;;;21.68;49.63;98238.78;5021752;28;19932;-63
2023/09/28 13:27:24;;;;;;;;;;;;;;;21.72;49.44;98228.53;5028984;28;20000;-64
2023/09/28 13:30:14;;;;;;;;;;;;;;;21.70;49.98;98219.84;5029294;28;19929;-63
2023/09/28 13:33:03;;;;;;;;;;;;;;;21.71;49.71;98215.88;5026556;28;20003;-63
2023/09/28 13:35:51;;;;;;;;;;;;;;;21.67;49.81;98215.84;5027483;28;19928;-64
2023/09/28 13:38:40;;;;;;;;;;;;;;;21.69;48.61;98216.28;5021653;28;19936;-64
2023/09/28 13:41:29;;;;;;;;;;;;;;;21.74;49.46;98217.91;5027577;28;20410;-64
2023/09/28 13:44:17;;;;;;;;;;;;;;;21.74;50.59;98209.63;5029359;28;19963;-64
2023/09/28 13:47:07;;;;;;;;;;;;;;;21.64;50.88;98204.75;5026390;28;19963;-64
2023/09/28 13:49:55;;;;;;;;;;;;;;;21.56;50.55;98197.53;5029057;28;20407;-64
2023/09/28 13:52:45;;;;;;;;;;;;;;;21.61;49.58;98191.69;5022595;28;20012;-63
2023/09/28 13:55:33;;;;;;;;;;;;;;;21.65;50.44;98190.56;5025014;28;19925;-63
2023/09/28 13:58:21;;;;;;;;;;;;;;;21.78;49.20;98198.56;5026560;28;19925;-62
2023/09/28 14:01:13;;;;;;;;;;;;;;;21.80;49.31;98197.03;5018873;28;19929;-63
2023/09/28 14:04:02;;;;;;;;;;;;;;;21.92;48.53;98191.22;5023663;28;20019;-63
2023/09/28 14:06:54;;;;;;;;;;;;;;;21.95;49.12;98192.47;5024483;28;19925;-63
2023/09/28 14:09:43;;;;;;;;;;;;;;;22.00;48.46;98188.53;5028092;28;19932;-63
2023/09/28 14:12:31;;;;;;;;;;;;;;;22.02;48.59;98189.75;5026342;28;20308;-63
2023/09/28 14:15:20;;;;;;;;;;;;;;;22.07;47.71;98183.09;5025918;28;19926;-62
2023/09/28 14:18:08;;;;;;;;;;;;;;;22.08;48.84;98176.38;5022311;28;20302;-63
2023/09/28 14:20:57;;;;;;;;;;;;;;;22.05;48.58;98182.66;5022153;28;20694;-63
2023/09/28 14:23:45;;;;;;;;;;;;;;;22.04;48.39;98178.28;5024700;28;19925;-64
2023/09/28 14:26:36;;;;;;;;;;;;;;;22.11;48.04;98175.66;5022901;28;19940;-62
2023/09/28 14:29:24;;;;;;;;;;;;;;;22.14;48.24;98183.97;5022674;28;20279;-63
2023/09/28 14:32:12;;;;;;;;;;;;;;;22.18;47.91;98189.53;5025780;28;19931;-63
2023/09/28 14:35:00;;;;;;;;;;;;;;;22.14;48.09;98194.25;5021252;28;19949;-62
2023/09/28 14:37:49;;;;;;;;;;;;;;;22.17;47.88;98194.28;5023209;28;19940;-62
2023/09/28 14:40:37;;;;;;;;;;;;;;;22.13;48.25;98192.66;5023550;28;19979;-63